createdAt,value
2018-09-19T00:00:47.822Z,23.20
2018-09-19T00:03:14.724Z,23.90
2018-09-19T00:05:41.613Z,19.20
2018-09-19T00:08:08.497Z,23.13
2018-09-19T00:10:35.400Z,24.70
2018-09-19T00:13:02.288Z,23.83
2018-09-19T00:15:29.228Z,21.77
2018-09-19T00:17:56.068Z,23.67
2018-09-19T00:20:22.949Z,18.63
2018-09-19T00:22:49.840Z,21.30
2018-09-19T00:25:16.755Z,23.13
2018-09-19T00:27:43.632Z,23.60
2018-09-19T00:30:10.529Z,25.20
2018-09-19T00:32:37.460Z,25.70
2018-09-19T00:35:04.356Z,30.27
2018-09-19T00:37:31.274Z,20.37
2018-09-19T00:39:58.219Z,21.13
2018-09-19T00:42:25.109Z,26.30
2018-09-19T00:44:52.010Z,22.83
2018-09-19T00:47:18.902Z,21.53
2018-09-19T00:49:45.805Z,20.27
2018-09-19T00:52:12.696Z,25.20
2018-09-19T00:54:39.617Z,24.33
2018-09-19T00:57:06.542Z,29.60
2018-09-19T00:59:33.445Z,30.50
2018-09-19T01:02:00.346Z,25.43
2018-09-19T01:04:27.244Z,23.20
2018-09-19T01:06:54.147Z,23.80
2018-09-19T01:09:21.032Z,26.40
2018-09-19T01:11:47.955Z,24.57
2018-09-19T01:14:14.854Z,21.80
2018-09-19T01:16:41.748Z,23.67
2018-09-19T01:19:08.656Z,19.67
2018-09-19T01:21:35.543Z,23.27
2018-09-19T01:24:19.959Z,21.17
2018-09-19T01:26:46.869Z,28.00
2018-09-19T01:29:13.776Z,24.00
2018-09-19T01:31:40.683Z,22.57
2018-09-19T01:34:07.893Z,24.17
2018-09-19T01:36:34.791Z,18.67
2018-09-19T01:39:01.699Z,22.00
2018-09-19T01:41:28.592Z,20.60
2018-09-19T01:43:55.490Z,20.53
2018-09-19T01:46:22.392Z,22.40
2018-09-19T01:48:49.284Z,24.70
2018-09-19T01:51:16.175Z,18.10
2018-09-19T01:53:43.093Z,16.77
2018-09-19T01:56:09.992Z,22.50
2018-09-19T01:58:36.885Z,23.47
2018-09-19T02:01:03.772Z,22.30
2018-09-19T02:03:30.729Z,22.07
2018-09-19T02:05:57.615Z,20.93
2018-09-19T02:08:24.547Z,18.63
2018-09-19T02:10:51.466Z,20.43
2018-09-19T02:13:18.356Z,21.13
2018-09-19T02:15:45.245Z,25.07
2018-09-19T02:18:12.142Z,19.27
2018-09-19T02:20:39.021Z,27.20
2018-09-19T02:23:05.928Z,20.87
2018-09-19T02:25:32.844Z,21.83
2018-09-19T02:27:59.760Z,22.37
2018-09-19T02:30:26.658Z,23.87
2018-09-19T02:32:53.562Z,19.47
2018-09-19T02:35:20.489Z,18.90
2018-09-19T02:37:47.672Z,26.73
2018-09-19T02:40:14.564Z,21.43
2018-09-19T02:42:41.515Z,18.03
2018-09-19T02:45:08.411Z,17.53
2018-09-19T02:47:35.288Z,20.90
2018-09-19T02:50:02.240Z,22.87
2018-09-19T02:52:29.109Z,24.37
2018-09-19T02:54:56.017Z,20.73
2018-09-19T02:57:22.887Z,23.40
2018-09-19T02:59:49.789Z,21.37
2018-09-19T03:02:16.674Z,21.30
2018-09-19T03:07:10.375Z,19.57
2018-09-19T03:09:37.258Z,20.17
2018-09-19T03:12:04.192Z,27.40
2018-09-19T03:14:31.081Z,21.33
2018-09-19T03:16:57.979Z,22.53
2018-09-19T03:19:24.861Z,20.10
2018-09-19T03:21:51.753Z,21.47
2018-09-19T03:24:18.638Z,24.07
2018-09-19T03:26:45.511Z,23.00
2018-09-19T03:29:12.401Z,21.17
2018-09-19T03:31:39.283Z,29.10
2018-09-19T03:34:06.161Z,25.50
2018-09-19T03:36:33.036Z,20.17
2018-09-19T03:38:59.927Z,25.37
2018-09-19T03:41:26.795Z,27.43
2018-09-19T03:43:53.680Z,20.97
2018-09-19T03:46:20.588Z,23.67
2018-09-19T03:48:47.473Z,27.40
2018-09-19T03:51:14.376Z,19.67
2018-09-19T03:53:41.240Z,22.30
2018-09-19T03:56:08.125Z,25.37
2018-09-19T03:58:35.044Z,25.13
2018-09-19T04:01:01.971Z,24.23
2018-09-19T04:03:28.849Z,29.30
2018-09-19T04:05:55.757Z,24.83
2018-09-19T04:08:22.632Z,25.70
2018-09-19T04:10:49.542Z,23.20
2018-09-19T04:13:16.431Z,29.57
2018-09-19T04:15:43.324Z,23.43
2018-09-19T04:18:10.268Z,26.70
2018-09-19T04:20:37.158Z,28.17
2018-09-19T04:23:04.055Z,24.47
2018-09-19T04:25:30.953Z,30.23
2018-09-19T04:27:57.853Z,23.90
2018-09-19T04:30:24.771Z,23.23
2018-09-19T04:32:51.661Z,26.97
2018-09-19T04:35:18.561Z,22.47
2018-09-19T04:37:45.452Z,20.37
2018-09-19T04:40:12.355Z,31.70
2018-09-19T04:42:39.260Z,28.90
2018-09-19T04:45:06.226Z,23.13
2018-09-19T04:47:33.076Z,25.50
2018-09-19T04:49:59.976Z,22.40
2018-09-19T04:52:26.878Z,24.93
2018-09-19T04:54:53.798Z,22.80
2018-09-19T04:57:20.684Z,21.00
2018-09-19T04:59:47.613Z,22.33
2018-09-19T05:02:14.525Z,26.47
2018-09-19T05:04:41.420Z,26.97
2018-09-19T05:07:08.348Z,26.03
2018-09-19T05:09:35.260Z,26.20
2018-09-19T05:12:02.201Z,22.60
2018-09-19T05:14:29.066Z,24.93
2018-09-19T05:16:55.959Z,23.13
2018-09-19T05:19:22.850Z,26.50
2018-09-19T05:21:49.750Z,22.43
2018-09-19T05:24:16.641Z,22.83
2018-09-19T05:26:43.539Z,24.53
2018-09-19T05:29:10.471Z,27.97
2018-09-19T05:31:37.431Z,28.60
2018-09-19T05:34:04.265Z,24.80
2018-09-19T05:36:31.150Z,26.53
2018-09-19T05:38:58.053Z,24.90
2018-09-19T05:41:24.965Z,30.67
2018-09-19T05:43:51.836Z,26.20
2018-09-19T05:46:18.760Z,24.83
2018-09-19T05:48:45.633Z,27.10
2018-09-19T05:51:12.536Z,27.40
2018-09-19T05:53:39.425Z,27.17
2018-09-19T05:56:06.320Z,22.60
2018-09-19T05:58:33.191Z,27.03
2018-09-19T06:01:00.094Z,24.60
2018-09-19T06:03:26.980Z,30.57
2018-09-19T06:05:53.875Z,31.37
2018-09-19T06:08:21.072Z,23.50
2018-09-19T06:10:47.995Z,24.40
2018-09-19T06:13:14.885Z,26.13
2018-09-19T06:15:41.768Z,25.50
2018-09-19T06:18:08.709Z,25.87
2018-09-19T06:20:35.679Z,27.53
2018-09-19T06:23:02.576Z,29.67
2018-09-19T06:25:29.467Z,32.20
2018-09-19T06:27:56.480Z,28.47
2018-09-19T06:30:23.379Z,26.90
2018-09-19T06:32:50.324Z,22.10
2018-09-19T06:35:17.197Z,26.27
2018-09-19T06:37:44.111Z,23.97
2018-09-19T06:40:11.090Z,28.43
2018-09-19T06:42:37.939Z,29.47
2018-09-19T06:45:04.888Z,24.73
2018-09-19T06:47:31.792Z,25.50
2018-09-19T06:49:58.677Z,24.43
2018-09-19T06:52:25.631Z,27.87
2018-09-19T06:54:52.519Z,26.47
2018-09-19T06:57:19.517Z,24.23
2018-09-19T06:59:46.540Z,29.87
2018-09-19T07:02:13.337Z,26.57
2018-09-19T07:04:40.239Z,23.03
2018-09-19T07:07:07.149Z,27.47
2018-09-19T07:09:34.044Z,32.60
2018-09-19T07:12:00.985Z,29.20
2018-09-19T07:14:27.938Z,26.33
2018-09-19T07:16:54.800Z,26.27
2018-09-19T07:19:28.427Z,22.27
2018-09-19T07:21:55.349Z,23.37
2018-09-19T07:24:22.250Z,20.37
2018-09-19T07:26:49.161Z,26.57
2018-09-19T07:29:16.056Z,24.17
2018-09-19T07:31:42.975Z,20.40
2018-09-19T07:34:09.872Z,22.73
2018-09-19T07:36:36.777Z,22.37
2018-09-19T07:39:06.713Z,24.27
2018-09-19T07:41:33.613Z,23.00
2018-09-19T07:44:00.520Z,23.03
2018-09-19T07:46:27.473Z,18.53
2018-09-19T07:48:54.375Z,23.53
2018-09-19T07:51:21.280Z,18.50
2018-09-19T07:53:48.207Z,20.67
2018-09-19T07:56:15.114Z,17.70
2018-09-19T07:58:42.041Z,19.70
2018-09-19T08:01:09.078Z,20.37
2018-09-19T08:03:35.937Z,16.47
2018-09-19T08:06:02.873Z,19.00
2018-09-19T08:08:29.794Z,21.07
2018-09-19T08:10:56.669Z,18.77
2018-09-19T08:13:23.589Z,20.63
2018-09-19T08:15:50.510Z,18.30
2018-09-19T08:18:17.400Z,17.60
2018-09-19T08:20:44.318Z,15.70
2018-09-19T08:23:11.519Z,15.97
2018-09-19T08:25:38.444Z,20.90
2018-09-19T08:28:05.357Z,17.67
2018-09-19T08:30:32.304Z,20.03
2018-09-19T08:32:59.228Z,20.37
2018-09-19T08:35:26.130Z,19.27
2018-09-19T08:37:53.053Z,19.63
2018-09-19T08:40:19.969Z,16.47
2018-09-19T08:42:46.925Z,15.43
2018-09-19T08:45:13.817Z,20.80
2018-09-19T08:47:40.716Z,19.00
2018-09-19T08:50:07.634Z,17.17
2018-09-19T08:52:34.588Z,14.90
2018-09-19T08:55:01.548Z,17.30
2018-09-19T08:57:28.484Z,15.37
2018-09-19T08:59:55.380Z,16.00
2018-09-19T09:02:22.300Z,14.80
2018-09-19T09:04:49.242Z,15.57
2018-09-19T09:07:16.136Z,15.70
2018-09-19T09:09:43.041Z,12.43
2018-09-19T09:12:10.059Z,14.57
2018-09-19T09:14:36.945Z,13.03
2018-09-19T09:17:03.891Z,13.80
2018-09-19T09:19:30.796Z,14.27
2018-09-19T09:21:57.697Z,11.40
2018-09-19T09:24:24.592Z,10.03
2018-09-19T09:26:51.569Z,12.17
2018-09-19T09:29:18.440Z,13.37
2018-09-19T09:31:45.324Z,14.30
2018-09-19T09:34:12.292Z,17.47
2018-09-19T09:36:39.214Z,10.30
2018-09-19T09:39:06.188Z,8.93
2018-09-19T09:41:33.092Z,10.43
2018-09-19T09:44:00.002Z,11.10
2018-09-19T09:46:26.896Z,9.27
2018-09-19T09:48:53.768Z,9.80
2018-09-19T09:51:20.708Z,9.80
2018-09-19T09:53:47.601Z,10.17
2018-09-19T09:56:14.512Z,9.00
2018-09-19T09:58:41.400Z,5.67
2018-09-19T10:01:08.384Z,9.17
2018-09-19T10:03:35.247Z,8.63
2018-09-19T10:06:02.148Z,9.57
2018-09-19T10:08:29.077Z,9.33
2018-09-19T10:10:55.992Z,7.83
2018-09-19T10:13:22.869Z,9.67
2018-09-19T10:15:49.778Z,10.70
2018-09-19T10:18:16.672Z,7.13
2018-09-19T10:20:43.565Z,10.87
2018-09-19T10:23:10.447Z,7.13
2018-09-19T10:25:37.344Z,9.63
2018-09-19T10:28:04.248Z,8.93
2018-09-19T10:30:31.168Z,7.30
2018-09-19T10:32:58.076Z,9.20
2018-09-19T10:35:25.020Z,11.60
2018-09-19T10:37:51.899Z,9.43
2018-09-19T10:40:18.805Z,9.07
2018-09-19T10:42:45.723Z,8.67
2018-09-19T10:45:12.625Z,10.20
2018-09-19T10:47:39.542Z,10.90
2018-09-19T10:50:06.563Z,12.60
2018-09-19T10:52:33.465Z,9.43
2018-09-19T10:55:00.344Z,10.40
2018-09-19T10:57:27.240Z,8.57
2018-09-19T10:59:54.118Z,10.30
2018-09-19T11:02:21.025Z,11.50
2018-09-19T11:04:47.939Z,11.03
2018-09-19T11:07:14.867Z,10.57
2018-09-19T11:09:41.770Z,14.53
2018-09-19T11:12:08.791Z,11.13
2018-09-19T11:14:35.834Z,12.73
2018-09-19T11:17:02.821Z,9.20
2018-09-19T11:19:29.739Z,9.87
2018-09-19T11:21:56.670Z,12.37
2018-09-19T11:24:23.576Z,11.30
2018-09-19T11:26:50.489Z,12.83
2018-09-19T11:29:17.405Z,11.77
2018-09-19T11:31:44.307Z,10.37
2018-09-19T11:34:11.197Z,10.03
2018-09-19T11:36:38.128Z,12.20
2018-09-19T11:39:07.600Z,11.33
2018-09-19T11:41:34.547Z,12.40
2018-09-19T11:44:01.468Z,13.53
2018-09-19T11:46:28.361Z,12.40
2018-09-19T11:48:55.276Z,8.87
2018-09-19T11:51:22.177Z,8.93
2018-09-19T11:53:55.902Z,9.57
2018-09-19T11:56:22.813Z,10.30
2018-09-19T11:58:49.708Z,8.20
2018-09-19T12:01:16.604Z,6.43
2018-09-19T12:03:43.513Z,8.77
2018-09-19T12:06:10.416Z,9.30
2018-09-19T12:08:37.305Z,9.97
2018-09-19T12:11:10.976Z,7.70
2018-09-19T12:13:37.921Z,10.53
2018-09-19T12:16:04.900Z,12.33
2018-09-19T12:18:31.812Z,11.73
2018-09-19T12:20:58.706Z,8.30
2018-09-19T12:23:25.632Z,8.43
2018-09-19T12:25:52.531Z,9.63
2018-09-19T12:28:19.429Z,9.23
2018-09-19T12:30:46.331Z,10.37
2018-09-19T12:33:13.238Z,7.07
2018-09-19T12:35:40.136Z,11.13
2018-09-19T12:38:07.065Z,9.57
2018-09-19T12:40:33.989Z,11.17
2018-09-19T12:43:00.900Z,10.77
2018-09-19T12:45:27.828Z,8.23
2018-09-19T12:47:54.764Z,9.40
2018-09-19T12:50:21.665Z,11.90
2018-09-19T12:52:48.585Z,7.73
2018-09-19T12:55:15.529Z,8.33
2018-09-19T12:57:42.438Z,8.67
2018-09-19T13:00:09.380Z,9.63
2018-09-19T13:02:36.280Z,7.67
2018-09-19T13:05:03.214Z,7.90
2018-09-19T13:07:30.124Z,12.10
2018-09-19T13:09:57.025Z,11.37
2018-09-19T13:12:23.917Z,8.17
2018-09-19T13:14:50.829Z,8.93
2018-09-19T13:17:17.729Z,10.77
2018-09-19T13:19:44.725Z,8.03
2018-09-19T13:22:11.620Z,13.87
2018-09-19T13:24:38.544Z,8.77
2018-09-19T13:27:05.448Z,10.10
2018-09-19T13:29:32.377Z,10.03
2018-09-19T13:31:59.289Z,7.83
2018-09-19T13:34:26.204Z,8.73
2018-09-19T13:36:53.120Z,7.97
2018-09-19T13:39:20.036Z,13.70
2018-09-19T13:41:46.936Z,9.53
2018-09-19T13:44:13.851Z,6.47
2018-09-19T13:46:40.788Z,9.40
2018-09-19T13:49:12.091Z,6.57
2018-09-19T13:51:38.997Z,7.17
2018-09-19T13:54:05.909Z,9.87
2018-09-19T13:56:32.833Z,6.33
2018-09-19T13:58:59.798Z,5.67
2018-09-19T14:01:26.681Z,6.33
2018-09-19T14:03:53.592Z,7.60
2018-09-19T14:06:20.505Z,5.10
2018-09-19T14:08:47.424Z,8.17
2018-09-19T14:11:14.354Z,7.80
2018-09-19T14:13:41.244Z,6.10
2018-09-19T14:16:08.268Z,10.17
2018-09-19T14:18:35.189Z,6.47
2018-09-19T14:21:02.120Z,5.23
2018-09-19T14:23:29.004Z,8.37
2018-09-19T14:25:55.917Z,4.43
2018-09-19T14:28:22.827Z,8.30
2018-09-19T14:30:49.729Z,5.93
2018-09-19T14:33:16.639Z,7.27
2018-09-19T14:35:43.600Z,7.27
2018-09-19T14:38:11.216Z,8.70
2018-09-19T14:40:38.134Z,12.50
2018-09-19T14:43:05.106Z,13.20
2018-09-19T14:45:31.996Z,10.13
2018-09-19T14:47:58.896Z,18.50
2018-09-19T14:50:25.785Z,7.47
2018-09-19T14:52:52.700Z,8.13
2018-09-19T14:55:19.624Z,9.93
2018-09-19T14:57:46.547Z,8.63
2018-09-19T15:00:13.516Z,16.27
2018-09-19T15:02:40.398Z,9.37
2018-09-19T15:05:07.296Z,9.70
2018-09-19T15:07:34.334Z,10.80
2018-09-19T15:10:01.248Z,8.93
2018-09-19T15:12:28.175Z,9.37
2018-09-19T15:14:55.071Z,41.80
2018-09-19T15:17:22.000Z,9.10
2018-09-19T15:19:48.937Z,10.23
2018-09-19T15:22:15.854Z,7.47
2018-09-19T15:24:43.157Z,8.83
2018-09-19T15:27:10.072Z,8.40
2018-09-19T15:29:36.965Z,9.97
2018-09-19T15:32:03.888Z,9.60
2018-09-19T15:34:30.816Z,8.60
2018-09-19T15:36:57.724Z,9.30
2018-09-19T15:39:24.640Z,10.10
2018-09-19T15:41:51.540Z,11.03
2018-09-19T15:44:18.507Z,8.30
2018-09-19T15:46:45.401Z,12.07
2018-09-19T15:49:12.327Z,12.37
2018-09-19T15:51:39.212Z,9.50
2018-09-19T15:54:06.141Z,14.27
2018-09-19T15:56:33.040Z,10.30
2018-09-19T15:58:59.978Z,8.70
2018-09-19T16:01:26.884Z,10.43
2018-09-19T16:03:53.804Z,8.37
2018-09-19T16:06:20.722Z,8.27
2018-09-19T16:08:47.638Z,10.60
2018-09-19T16:11:14.593Z,10.57
2018-09-19T16:13:41.888Z,9.70
2018-09-19T16:16:09.208Z,11.13
2018-09-19T16:18:36.172Z,9.20
2018-09-19T16:21:03.189Z,9.13
2018-09-19T16:23:30.204Z,8.27
2018-09-19T16:28:30.844Z,10.63
2018-09-19T16:30:57.742Z,9.80
2018-09-19T16:33:24.645Z,11.47
2018-09-19T16:35:51.560Z,12.90
2018-09-19T16:38:18.477Z,9.07
2018-09-19T16:40:45.386Z,10.27
2018-09-19T16:43:12.344Z,7.33
2018-09-19T16:45:39.350Z,8.17
2018-09-19T16:48:06.588Z,11.70
2018-09-19T16:50:33.501Z,7.43
2018-09-19T16:53:00.476Z,9.40
2018-09-19T16:55:27.347Z,12.03
2018-09-19T16:57:54.248Z,6.63
2018-09-19T17:00:21.173Z,12.27
2018-09-19T17:02:48.086Z,8.63
2018-09-19T17:05:15.006Z,10.53
2018-09-19T17:07:42.016Z,9.33
2018-09-19T17:10:08.945Z,9.93
2018-09-19T17:12:35.856Z,11.27
2018-09-19T17:15:02.836Z,8.60
2018-09-19T17:17:29.764Z,9.10
2018-09-19T17:19:56.676Z,11.77
2018-09-19T17:22:23.572Z,11.77
2018-09-19T17:24:52.993Z,14.97
2018-09-19T17:27:19.909Z,20.93
2018-09-19T17:29:46.821Z,20.70
2018-09-19T17:32:13.760Z,18.17
2018-09-19T17:34:40.712Z,15.80
2018-09-19T17:37:07.725Z,15.23
2018-09-19T17:39:34.625Z,17.40
2018-09-19T17:42:01.561Z,11.73
2018-09-19T17:44:28.534Z,18.07
2018-09-19T17:46:55.490Z,12.70
2018-09-19T17:49:22.445Z,14.83
2018-09-19T17:51:49.372Z,21.30
2018-09-19T17:54:16.287Z,17.80
2018-09-19T17:56:43.236Z,16.10
2018-09-19T17:59:10.140Z,17.20
2018-09-19T18:01:37.148Z,19.77
2018-09-19T18:04:04.089Z,16.73
2018-09-19T18:06:31.809Z,19.00
2018-09-19T18:08:58.732Z,16.17
2018-09-19T18:11:25.648Z,18.10
2018-09-19T18:13:52.605Z,18.10
2018-09-19T18:16:19.598Z,16.07
2018-09-19T18:18:46.568Z,17.60
2018-09-19T18:21:13.467Z,20.10
2018-09-19T18:23:40.377Z,17.27
2018-09-19T18:26:07.316Z,18.37
2018-09-19T18:28:34.248Z,17.10
2018-09-19T18:31:01.285Z,15.47
2018-09-19T18:33:28.196Z,17.40
2018-09-19T18:35:55.165Z,16.77
2018-09-19T18:38:22.127Z,16.50
2018-09-19T18:40:49.023Z,17.33
2018-09-19T18:43:15.898Z,17.43
2018-09-19T18:45:42.793Z,16.10
2018-09-19T18:48:09.720Z,20.33
2018-09-19T18:50:36.615Z,17.07
2018-09-19T18:53:03.524Z,15.63
2018-09-19T18:55:30.439Z,14.67
2018-09-19T18:57:57.353Z,16.37
2018-09-19T19:00:24.252Z,18.43
2018-09-19T19:02:51.175Z,15.57
2018-09-19T19:05:18.124Z,18.90
2018-09-19T19:07:45.046Z,19.23
2018-09-19T19:10:11.957Z,15.07
2018-09-19T19:12:38.870Z,17.37
2018-09-19T19:15:05.848Z,16.40
2018-09-19T19:17:32.760Z,15.87
2018-09-19T19:19:59.693Z,17.37
2018-09-19T19:22:26.616Z,16.10
2018-09-19T19:24:53.519Z,16.60
2018-09-19T19:27:20.431Z,17.97
2018-09-19T19:29:47.365Z,14.27
2018-09-19T19:32:14.337Z,14.87
2018-09-19T19:34:41.259Z,15.90
2018-09-19T19:37:08.201Z,16.60
2018-09-19T19:39:35.144Z,12.70
2018-09-19T19:42:02.069Z,16.50
2018-09-19T19:44:28.988Z,16.77
2018-09-19T19:46:55.976Z,13.27
2018-09-19T19:49:22.912Z,20.67
2018-09-19T19:51:49.846Z,23.00
2018-09-19T19:54:16.785Z,21.70
2018-09-19T19:56:43.705Z,17.87
2018-09-19T19:59:10.647Z,29.57
2018-09-19T20:01:37.537Z,20.17
2018-09-19T20:04:04.445Z,18.73
2018-09-19T20:06:31.358Z,23.03
2018-09-19T20:08:58.347Z,25.53
2018-09-19T20:11:25.269Z,23.13
2018-09-19T20:13:52.203Z,22.37
2018-09-19T20:16:19.152Z,20.40
2018-09-19T20:18:46.070Z,18.23
2018-09-19T20:21:12.992Z,21.13
2018-09-19T20:23:39.937Z,17.40
2018-09-19T20:26:06.845Z,15.93
2018-09-19T20:28:33.798Z,17.20
2018-09-19T20:31:00.944Z,15.13
2018-09-19T20:33:27.848Z,16.23
2018-09-19T20:35:54.765Z,16.50
2018-09-19T20:38:23.440Z,14.40
2018-09-19T20:40:50.397Z,12.07
2018-09-19T20:43:17.292Z,12.73
2018-09-19T20:45:44.228Z,11.43
2018-09-19T20:48:11.154Z,14.23
2018-09-19T20:50:38.087Z,12.53
2018-09-19T20:53:05.011Z,14.63
2018-09-19T20:55:31.954Z,13.50
2018-09-19T20:57:58.877Z,9.67
2018-09-19T21:00:25.792Z,11.33
2018-09-19T21:02:52.725Z,11.70
2018-09-19T21:05:19.652Z,12.23
2018-09-19T21:07:46.573Z,10.07
2018-09-19T21:10:13.497Z,10.80
2018-09-19T21:12:40.436Z,9.27
2018-09-19T21:15:07.366Z,12.77
2018-09-19T21:17:35.020Z,8.70
2018-09-19T21:20:01.937Z,10.37
2018-09-19T21:22:29.067Z,8.73
2018-09-19T21:24:55.845Z,12.00
2018-09-19T21:27:22.773Z,7.53
2018-09-19T21:29:49.700Z,11.03
2018-09-19T21:32:16.681Z,9.63
2018-09-19T21:34:43.535Z,8.93
2018-09-19T21:37:10.464Z,6.37
2018-09-19T21:39:37.400Z,8.83
2018-09-19T21:42:04.349Z,8.67
2018-09-19T21:44:31.269Z,8.87
2018-09-19T21:46:58.208Z,9.10
2018-09-19T21:49:25.125Z,8.13
2018-09-19T21:51:52.039Z,11.23
2018-09-19T21:54:19.018Z,11.40
2018-09-19T21:56:45.944Z,12.90
2018-09-19T21:59:12.875Z,7.43
2018-09-19T22:01:39.820Z,13.57
2018-09-19T22:04:06.745Z,9.60
2018-09-19T22:06:33.650Z,12.50
2018-09-19T22:09:00.574Z,8.30
2018-09-19T22:11:27.505Z,7.90
2018-09-19T22:13:54.428Z,9.33
2018-09-19T22:16:21.376Z,12.37
2018-09-19T22:18:48.293Z,11.37
2018-09-19T22:21:15.213Z,8.60
2018-09-19T22:23:42.151Z,11.20
2018-09-19T22:26:09.137Z,13.47
2018-09-19T22:28:36.059Z,9.17
2018-09-19T22:31:03.003Z,10.03
2018-09-19T22:33:29.929Z,9.50
2018-09-19T22:35:56.860Z,9.43
2018-09-19T22:38:23.761Z,11.03
2018-09-19T22:40:50.681Z,7.10
2018-09-19T22:43:17.603Z,8.87
2018-09-19T22:45:44.541Z,5.97
2018-09-19T22:48:11.466Z,9.50
2018-09-19T22:50:38.410Z,13.07
2018-09-19T22:53:05.352Z,9.67
2018-09-19T22:55:32.632Z,7.33
2018-09-19T22:57:59.545Z,7.03
2018-09-19T23:00:26.478Z,7.93
2018-09-19T23:02:53.396Z,8.70
2018-09-19T23:05:20.319Z,9.77
2018-09-19T23:07:47.234Z,10.17
2018-09-19T23:10:14.181Z,9.47
2018-09-19T23:12:41.099Z,11.87
2018-09-19T23:15:08.064Z,8.07
2018-09-19T23:17:35.001Z,8.73
2018-09-19T23:20:01.956Z,5.87
2018-09-19T23:22:28.881Z,6.93
2018-09-19T23:24:55.780Z,8.57
2018-09-19T23:27:22.712Z,7.93
2018-09-19T23:29:49.652Z,7.37
2018-09-19T23:32:16.579Z,7.20
2018-09-19T23:34:43.499Z,7.63
2018-09-19T23:37:10.493Z,7.03
2018-09-19T23:39:37.424Z,7.37
2018-09-19T23:42:04.377Z,10.90
2018-09-19T23:44:31.361Z,7.73
2018-09-19T23:46:58.310Z,10.23
2018-09-19T23:49:25.260Z,8.33
2018-09-19T23:51:52.188Z,9.00
2018-09-19T23:54:19.101Z,9.17
2018-09-19T23:56:46.053Z,7.43
2018-09-19T23:59:12.993Z,8.83
